Time;durP1;ratioP1;P1;durP2;ratioP2;P2;SDS_P1;SDS_P2;PMS_P1;PMS_P2;Temp;Humidity;BMP_temperature;BMP_pressure;BME280_temperature;BME280_humidity;BME280_pressure;Samples;Min_cycle;Max_cycle;Signal;HPM_P1;HPM_P2
2022/07/23 00:01:00;;;;;;;3.17;1.83;;;14.50;99.90;;;;;;5015655;28;20046;-69
2022/07/23 00:03:26;;;;;;;4.95;2.15;;;14.50;99.90;;;;;;5015441;28;20060;-70
2022/07/23 00:05:52;;;;;;;3.58;1.90;;;14.50;99.90;;;;;;5015930;28;20054;-69
2022/07/23 00:08:17;;;;;;;7.85;2.92;;;14.50;99.90;;;;;;5015072;28;20434;-69
2022/07/23 00:10:43;;;;;;;5.93;1.95;;;14.50;99.90;;;;;;5015591;28;20081;-69
2022/07/23 00:13:09;;;;;;;3.42;2.17;;;14.60;99.90;;;;;;5015475;28;20042;-69
2022/07/23 00:15:35;;;;;;;5.88;2.22;;;14.50;99.90;;;;;;5014354;28;20054;-69
2022/07/23 00:18:00;;;;;;;5.22;2.20;;;14.50;99.90;;;;;;5015058;28;20056;-69
2022/07/23 00:20:26;;;;;;;3.88;2.25;;;14.50;99.90;;;;;;5015157;28;20057;-69
2022/07/23 00:22:54;;;;;;;5.40;2.55;;;14.50;99.90;;;;;;5015644;28;20121;-69
2022/07/23 00:25:22;;;;;;;4.78;2.20;;;14.40;99.90;;;;;;5015019;28;20045;-69
2022/07/23 00:27:48;;;;;;;8.35;2.35;;;14.40;99.90;;;;;;5015507;28;20378;-69
2022/07/23 00:30:13;;;;;;;4.25;1.95;;;14.30;99.90;;;;;;5015051;28;20038;-69
2022/07/23 00:32:54;;;;;;;6.15;2.42;;;14.30;99.90;;;;;;5014997;28;20490;-70
2022/07/23 00:35:21;;;;;;;6.57;2.85;;;14.30;99.90;;;;;;5015446;28;20134;-69
2022/07/23 00:37:46;;;;;;;5.40;2.30;;;14.20;99.90;;;;;;5015594;28;20430;-69
2022/07/23 00:40:12;;;;;;;4.72;2.35;;;14.20;99.90;;;;;;5015032;28;20129;-69
2022/07/23 00:42:39;;;;;;;5.95;2.80;;;14.20;99.90;;;;;;5015010;28;20107;-70
2022/07/23 00:45:05;;;;;;;7.63;2.72;;;14.10;99.90;;;;;;5017023;28;20045;-70
2022/07/23 00:47:31;;;;;;;4.22;2.47;;;14.10;99.90;;;;;;5018690;28;20056;-69
2022/07/23 00:49:56;;;;;;;4.15;2.40;;;14.10;99.90;;;;;;5018678;28;20056;-69
2022/07/23 00:52:22;;;;;;;5.72;3.08;;;14.00;99.90;;;;;;5019612;28;20053;-70
2022/07/23 00:54:48;;;;;;;6.45;2.92;;;14.00;99.90;;;;;;5019058;28;20053;-69
2022/07/23 00:57:14;;;;;;;4.00;2.40;;;14.00;99.90;;;;;;5018873;28;20065;-69
2022/07/23 00:59:41;;;;;;;9.95;3.10;;;13.90;99.90;;;;;;5019089;28;20470;-69
2022/07/23 01:02:06;;;;;;;5.03;2.78;;;14.00;99.90;;;;;;5018790;28;20056;-69
2022/07/23 01:04:32;;;;;;;5.57;3.30;;;14.00;99.90;;;;;;5018733;28;20418;-69
2022/07/23 01:06:58;;;;;;;8.55;3.00;;;14.00;99.90;;;;;;5001625;28;20054;-69
2022/07/23 01:09:23;;;;;;;5.22;3.17;;;14.00;99.90;;;;;;5018675;28;20550;-69
2022/07/23 01:11:51;;;;;;;5.72;2.78;;;14.00;99.90;;;;;;5018498;28;20370;-70
2022/07/23 01:14:18;;;;;;;6.93;3.28;;;14.00;99.90;;;;;;5018432;28;20470;-69
2022/07/23 01:16:46;;;;;;;8.73;3.28;;;14.00;99.90;;;;;;5018186;28;20064;-69
2022/07/23 01:19:13;;;;;;;5.53;3.13;;;14.00;99.90;;;;;;5018860;28;20060;-69
2022/07/23 01:21:42;;;;;;;5.38;3.15;;;14.00;99.90;;;;;;5018365;28;20038;-69
2022/07/23 01:24:09;;;;;;;10.32;3.60;;;13.90;99.90;;;;;;5017665;28;20057;-69
2022/07/23 01:26:35;;;;;;;8.38;3.13;;;13.90;99.90;;;;;;5018434;28;20111;-70
2022/07/23 01:29:01;;;;;;;5.28;3.33;;;13.80;99.90;;;;;;5018700;28;20050;-70
2022/07/23 01:31:27;;;;;;;5.72;3.08;;;13.80;99.90;;;;;;5018332;28;20060;-70
2022/07/23 01:33:53;;;;;;;4.63;3.03;;;13.70;99.90;;;;;;5018550;28;20467;-70
2022/07/23 01:36:18;;;;;;;7.75;3.38;;;13.70;99.90;;;;;;5018695;28;20147;-69
2022/07/23 01:38:44;;;;;;;5.50;3.35;;;13.70;99.90;;;;;;5018093;28;20474;-69
2022/07/23 01:41:10;;;;;;;8.55;3.50;;;13.50;99.90;;;;;;5018209;28;20466;-69
2022/07/23 01:43:35;;;;;;;9.48;3.28;;;13.50;99.90;;;;;;5017398;28;20509;-69
2022/07/23 01:46:01;;;;;;;6.10;3.20;;;13.40;99.90;;;;;;5018136;28;20053;-69
2022/07/23 01:48:26;;;;;;;4.68;2.45;;;13.40;99.90;;;;;;5018287;28;20042;-69
2022/07/23 01:50:52;;;;;;;5.25;2.75;;;13.30;99.90;;;;;;5017804;28;20057;-69
2022/07/23 01:53:17;;;;;;;6.47;2.80;;;13.30;99.90;;;;;;5018396;28;20038;-69
2022/07/23 01:55:43;;;;;;;6.05;3.38;;;13.10;99.90;;;;;;5017376;28;20529;-69
2022/07/23 01:58:09;;;;;;;6.65;3.08;;;13.10;99.90;;;;;;5017670;28;20050;-69
2022/07/23 02:00:35;;;;;;;5.75;2.80;;;13.10;99.90;;;;;;5018119;28;20038;-69
2022/07/23 02:03:01;;;;;;;4.90;2.90;;;13.00;99.90;;;;;;5018031;28;20096;-69
2022/07/23 02:05:28;;;;;;;5.90;2.90;;;13.00;99.90;;;;;;5017591;28;20363;-69
2022/07/23 02:07:54;;;;;;;6.28;3.10;;;12.90;99.90;;;;;;5017637;28;20097;-69
2022/07/23 02:10:20;;;;;;;5.78;2.80;;;12.90;99.90;;;;;;5017498;28;20042;-69
2022/07/23 02:12:46;;;;;;;10.70;3.20;;;12.80;99.90;;;;;;5017902;28;20466;-69
2022/07/23 02:15:12;;;;;;;5.38;2.75;;;12.80;99.90;;;;;;5017426;28;20154;-69
2022/07/23 02:17:38;;;;;;;4.63;2.60;;;12.70;99.90;;;;;;5016681;28;20045;-68
2022/07/23 02:20:05;;;;;;;16.88;4.00;;;12.70;99.90;;;;;;5017837;28;20046;-69
2022/07/23 02:22:30;;;;;;;6.93;2.92;;;12.70;99.90;;;;;;5017134;28;20060;-69
2022/07/23 02:24:56;;;;;;;10.32;3.17;;;12.60;99.90;;;;;;5017778;28;20046;-69
2022/07/23 02:27:21;;;;;;;6.82;2.65;;;12.50;99.90;;;;;;5017464;28;20053;-69
2022/07/23 02:29:47;;;;;;;7.55;3.08;;;12.50;99.90;;;;;;5017018;28;20116;-69
2022/07/23 02:32:13;;;;;;;5.93;3.08;;;12.50;99.90;;;;;;5017518;28;20045;-69
2022/07/23 02:34:38;;;;;;;7.72;2.45;;;12.50;99.90;;;;;;5016971;28;20046;-69
2022/07/23 02:37:04;;;;;;;5.50;2.58;;;12.50;99.90;;;;;;5016989;28;20081;-69
2022/07/23 02:39:29;;;;;;;5.63;3.08;;;12.50;99.90;;;;;;5017229;28;20046;-68
2022/07/23 02:41:55;;;;;;;4.82;3.05;;;12.40;99.90;;;;;;5016890;28;20125;-69
2022/07/23 02:44:21;;;;;;;6.63;2.92;;;12.40;99.90;;;;;;5016866;28;20052;-69
2022/07/23 02:46:46;;;;;;;6.00;2.95;;;12.30;99.90;;;;;;5016507;28;20532;-69
2022/07/23 02:49:12;;;;;;;4.68;2.90;;;12.30;99.90;;;;;;5016789;28;20112;-69
2022/07/23 02:51:38;;;;;;;6.57;3.35;;;12.30;99.90;;;;;;5016671;28;20538;-69
2022/07/23 02:54:03;;;;;;;4.05;2.55;;;12.30;99.90;;;;;;5016475;28;20045;-69
2022/07/23 02:56:29;;;;;;;7.88;3.35;;;12.20;99.90;;;;;;5016506;28;20038;-69
2022/07/23 02:58:54;;;;;;;9.02;3.45;;;12.30;99.90;;;;;;5015229;28;20430;-69
2022/07/23 03:01:20;;;;;;;5.72;2.72;;;12.30;99.90;;;;;;5016108;28;20061;-69
2022/07/23 03:03:45;;;;;;;7.25;3.22;;;12.20;99.90;;;;;;5015895;28;20054;-70
2022/07/23 03:06:11;;;;;;;5.25;3.00;;;12.20;99.90;;;;;;5016892;28;20354;-69
2022/07/23 03:08:37;;;;;;;5.30;2.60;;;12.20;99.90;;;;;;5015758;28;20129;-69
2022/07/23 03:11:03;;;;;;;6.95;2.90;;;12.20;99.90;;;;;;5016407;28;20208;-69
2022/07/23 03:13:29;;;;;;;5.13;2.70;;;12.20;99.90;;;;;;5015644;28;20458;-69
2022/07/23 03:15:54;;;;;;;5.82;3.15;;;12.10;99.90;;;;;;5016221;28;20129;-69
2022/07/23 03:18:20;;;;;;;5.50;3.15;;;12.10;99.90;;;;;;5016281;28;20128;-69
2022/07/23 03:20:46;;;;;;;4.93;2.60;;;12.10;99.90;;;;;;5016001;28;20476;-69
2022/07/23 03:23:12;;;;;;;5.80;2.97;;;12.10;99.90;;;;;;5016776;28;20046;-69
2022/07/23 03:25:37;;;;;;;6.60;3.47;;;12.10;99.90;;;;;;5016138;28;20153;-69
2022/07/23 03:28:03;;;;;;;6.10;3.35;;;12.00;99.90;;;;;;5016131;28;20136;-69
2022/07/23 03:30:28;;;;;;;5.72;3.33;;;12.10;99.90;;;;;;5016403;28;20054;-69
2022/07/23 03:32:54;;;;;;;6.10;3.08;;;12.10;99.90;;;;;;5016248;28;20045;-69
2022/07/23 03:35:20;;;;;;;6.63;3.53;;;12.10;99.90;;;;;;5015074;28;20141;-69
2022/07/23 03:37:45;;;;;;;6.70;3.00;;;12.20;99.90;;;;;;5015912;28;20042;-69
2022/07/23 03:40:11;;;;;;;5.03;3.08;;;12.30;99.90;;;;;;5016393;28;20473;-69
2022/07/23 03:42:39;;;;;;;5.25;3.22;;;12.30;99.90;;;;;;5015722;28;20141;-69
2022/07/23 03:45:05;;;;;;;5.28;3.30;;;12.40;99.90;;;;;;5015948;28;20124;-69
2022/07/23 03:47:31;;;;;;;6.88;3.17;;;12.30;99.90;;;;;;5015761;28;20088;-69
2022/07/23 03:49:56;;;;;;;6.72;3.88;;;12.30;99.90;;;;;;5016220;28;20053;-69
2022/07/23 03:52:22;;;;;;;4.68;2.78;;;12.30;99.90;;;;;;5015586;28;20041;-69
2022/07/23 03:54:48;;;;;;;5.47;3.05;;;12.30;99.90;;;;;;5015300;28;20056;-69
2022/07/23 03:57:13;;;;;;;8.43;3.67;;;12.30;99.90;;;;;;5015747;28;20091;-69
2022/07/23 03:59:39;;;;;;;5.93;3.15;;;12.40;99.90;;;;;;4997574;28;20065;-69
2022/07/23 04:02:04;;;;;;;6.45;3.30;;;12.30;99.90;;;;;;5014476;28;20378;-69
2022/07/23 04:04:30;;;;;;;12.38;3.33;;;12.30;99.90;;;;;;5015635;28;20118;-69
2022/07/23 04:06:55;;;;;;;5.85;3.67;;;12.30;99.90;;;;;;5015554;28;20033;-69
2022/07/23 04:09:21;;;;;;;6.20;3.53;;;12.30;99.90;;;;;;5015651;28;20502;-69
2022/07/23 04:11:47;;;;;;;5.50;3.05;;;12.30;99.90;;;;;;5015080;28;20038;-69
2022/07/23 04:14:12;;;;;;;5.68;3.65;;;12.30;99.90;;;;;;5015271;28;20473;-69
2022/07/23 04:16:38;;;;;;;5.30;3.13;;;12.30;99.90;;;;;;5015208;28;20133;-69
2022/07/23 04:19:04;;;;;;;7.65;3.67;;;12.30;99.90;;;;;;5015157;28;20065;-69
2022/07/23 04:21:30;;;;;;;4.68;2.80;;;12.30;99.90;;;;;;5015146;28;20055;-69
2022/07/23 04:23:56;;;;;;;6.38;3.33;;;12.40;99.90;;;;;;5015020;28;20447;-69
2022/07/23 04:26:21;;;;;;;5.43;3.05;;;12.40;99.90;;;;;;5014974;28;20115;-69
2022/07/23 04:28:47;;;;;;;7.30;3.00;;;12.50;99.90;;;;;;5015421;28;20138;-69
2022/07/23 04:31:12;;;;;;;4.70;3.05;;;12.60;99.90;;;;;;5014773;28;20131;-69
2022/07/23 04:33:38;;;;;;;4.85;2.72;;;12.80;99.90;;;;;;5014696;28;20053;-69
2022/07/23 04:36:04;;;;;;;5.60;3.28;;;12.80;99.90;;;;;;5015254;28;20089;-68
2022/07/23 04:38:29;;;;;;;5.53;2.80;;;12.90;99.90;;;;;;5014914;28;20064;-69
2022/07/23 04:40:55;;;;;;;8.70;3.10;;;13.10;99.90;;;;;;5014891;28;20078;-69
2022/07/23 04:43:20;;;;;;;6.15;2.90;;;13.10;99.90;;;;;;5015395;28;20439;-69
2022/07/23 04:45:46;;;;;;;6.43;2.65;;;13.20;99.90;;;;;;5015208;28;20050;-69
2022/07/23 04:48:12;;;;;;;7.88;3.03;;;13.30;99.90;;;;;;5015140;28;20037;-69
2022/07/23 04:50:37;;;;;;;5.18;3.05;;;13.30;99.90;;;;;;5015277;28;20046;-69
2022/07/23 04:53:03;;;;;;;7.32;3.22;;;13.40;99.90;;;;;;5014993;28;20192;-69
2022/07/23 04:55:28;;;;;;;7.35;3.10;;;13.60;99.90;;;;;;5015009;28;20075;-69
2022/07/23 04:57:54;;;;;;;7.68;2.90;;;13.70;99.90;;;;;;5014081;28;20072;-69
2022/07/23 05:00:20;;;;;;;6.05;3.35;;;13.80;99.90;;;;;;5015000;28;20151;-69
2022/07/23 05:02:45;;;;;;;7.35;3.05;;;14.00;99.90;;;;;;5015061;28;20375;-70
2022/07/23 05:05:11;;;;;;;10.90;3.08;;;14.00;99.90;;;;;;5014755;28;20414;-69
2022/07/23 05:07:36;;;;;;;7.53;2.65;;;14.20;99.90;;;;;;5015035;28;20116;-69
2022/07/23 05:10:02;;;;;;;6.25;2.72;;;14.30;99.90;;;;;;5014625;28;20038;-70
2022/07/23 05:12:28;;;;;;;4.13;2.50;;;14.40;99.90;;;;;;5015073;28;20041;-69
2022/07/23 05:14:53;;;;;;;6.72;3.10;;;14.50;99.90;;;;;;5014686;28;20459;-70
2022/07/23 05:17:19;;;;;;;6.78;3.15;;;14.70;99.90;;;;;;5014617;28;20049;-69
2022/07/23 05:19:44;;;;;;;8.02;2.63;;;14.70;99.90;;;;;;5014601;28;20050;-70
2022/07/23 05:22:10;;;;;;;5.45;2.63;;;14.90;99.90;;;;;;5014546;28;20088;-69
2022/07/23 05:24:35;;;;;;;5.50;2.72;;;15.10;99.90;;;;;;5015165;28;20112;-69
2022/07/23 05:27:01;;;;;;;5.40;3.17;;;15.20;99.90;;;;;;5014288;28;20045;-70
2022/07/23 05:29:26;;;;;;;4.93;2.85;;;15.40;99.90;;;;;;5014926;28;20458;-69
2022/07/23 05:31:52;;;;;;;5.78;2.63;;;15.50;99.90;;;;;;5017795;28;20041;-70
2022/07/23 05:34:18;;;;;;;5.55;2.50;;;15.90;99.90;;;;;;5018225;28;20176;-69
2022/07/23 05:36:43;;;;;;;6.93;2.88;;;16.10;99.90;;;;;;5018692;28;20461;-69
2022/07/23 05:39:09;;;;;;;4.07;2.25;;;16.10;99.90;;;;;;5017832;28;20388;-69
2022/07/23 05:41:34;;;;;;;3.85;2.08;;;16.10;99.90;;;;;;5017973;28;20053;-70
2022/07/23 05:44:00;;;;;;;4.15;2.30;;;16.00;99.90;;;;;;5018205;28;20045;-69
2022/07/23 05:46:25;;;;;;;5.80;2.97;;;16.00;99.90;;;;;;5018134;28;20127;-70
2022/07/23 05:48:51;;;;;;;6.43;2.50;;;16.20;99.90;;;;;;5017705;28;20359;-69
2022/07/23 05:51:24;;;;;;;5.90;2.78;;;16.40;99.90;;;;;;5016866;28;20097;-69
2022/07/23 05:53:50;;;;;;;6.82;2.92;;;16.70;99.90;;;;;;5017627;28;20100;-70
2022/07/23 05:56:16;;;;;;;7.03;2.80;;;17.60;99.90;;;;;;5018212;28;20038;-69
2022/07/23 05:58:42;;;;;;;6.68;2.55;;;19.00;99.90;;;;;;5017429;28;20041;-70
2022/07/23 06:01:08;;;;;;;4.20;2.25;;;19.50;99.90;;;;;;5017655;28;20057;-70
2022/07/23 06:03:34;;;;;;;6.68;1.90;;;19.60;99.90;;;;;;5017716;28;20382;-69
2022/07/23 06:05:59;;;;;;;7.22;2.25;;;20.00;99.90;;;;;;5018144;28;20057;-69
2022/07/23 06:08:25;;;;;;;2.95;1.70;;;20.80;99.90;;;;;;5017538;28;20485;-70
2022/07/23 06:10:51;;;;;;;5.32;1.70;;;21.60;99.90;;;;;;5017173;28;20058;-70
2022/07/23 06:13:17;;;;;;;3.63;1.60;;;22.70;99.90;;;;;;5017606;28;20049;-71
2022/07/23 06:15:43;;;;;;;4.90;1.80;;;23.20;99.90;;;;;;5017424;28;20100;-71
2022/07/23 06:18:09;;;;;;;4.10;1.60;;;23.70;99.90;;;;;;5017381;28;20050;-70
2022/07/23 06:20:34;;;;;;;6.78;1.30;;;24.60;99.90;;;;;;5000524;28;20054;-70
2022/07/23 06:23:00;;;;;;;3.50;1.42;;;25.30;99.90;;;;;;5016992;28;20432;-70
2022/07/23 06:25:26;;;;;;;5.25;1.48;;;25.80;98.20;;;;;;5017160;28;20041;-71
2022/07/23 06:27:51;;;;;;;2.63;1.15;;;26.30;98.10;;;;;;5017155;28;20497;-70
2022/07/23 06:30:18;;;;;;;3.35;1.08;;;26.40;98.20;;;;;;5017642;28;20352;-70
2022/07/23 06:32:45;;;;;;;2.40;1.10;;;26.70;97.20;;;;;;5017148;28;20046;-71
2022/07/23 06:35:10;;;;;;;3.55;1.27;;;27.40;96.10;;;;;;5017086;28;20046;-70
2022/07/23 06:37:36;;;;;;;1.80;1.05;;;27.70;96.60;;;;;;5017042;28;20049;-70
2022/07/23 06:40:02;;;;;;;2.45;0.90;;;27.70;95.10;;;;;;5016744;28;20515;-70
2022/07/23 06:42:28;;;;;;;3.33;1.20;;;28.20;95.80;;;;;;5015803;28;20046;-70
2022/07/23 06:44:53;;;;;;;1.90;1.00;;;28.80;95.00;;;;;;5016854;28;20057;-71
2022/07/23 06:47:19;;;;;;;16.05;1.13;;;28.80;93.50;;;;;;5016715;28;20467;-71
2022/07/23 06:49:44;;;;;;;2.58;1.00;;;29.30;93.20;;;;;;5016038;28;20103;-71
2022/07/23 06:52:10;;;;;;;1.75;0.90;;;29.00;93.10;;;;;;5016776;28;20048;-70
2022/07/23 06:54:35;;;;;;;4.63;0.90;;;28.20;92.70;;;;;;5016494;28;20108;-71
2022/07/23 06:57:01;;;;;;;4.88;1.10;;;27.50;92.50;;;;;;5016709;28;20042;-70
2022/07/23 06:59:27;;;;;;;1.83;0.90;;;26.80;93.30;;;;;;5016553;28;20046;-70
2022/07/23 07:01:53;;;;;;;3.97;1.00;;;26.20;94.40;;;;;;5016833;28;20108;-71
2022/07/23 07:04:18;;;;;;;2.42;0.82;;;25.40;94.00;;;;;;5016774;28;20064;-70
2022/07/23 07:06:44;;;;;;;5.03;0.85;;;25.00;94.60;;;;;;5016444;28;20057;-70
2022/07/23 07:09:09;;;;;;;1.75;0.68;;;24.70;95.10;;;;;;5016905;28;20045;-71
2022/07/23 07:11:35;;;;;;;2.72;1.10;;;24.50;95.60;;;;;;5015976;28;20052;-70
2022/07/23 07:14:00;;;;;;;3.20;0.90;;;24.20;95.50;;;;;;5015863;28;20054;-70
2022/07/23 07:16:26;;;;;;;2.38;1.23;;;24.10;96.50;;;;;;5016667;28;20366;-70
2022/07/23 07:18:52;;;;;;;1.35;0.63;;;24.10;96.40;;;;;;5016479;28;20042;-70
2022/07/23 07:21:17;;;;;;;2.30;0.93;;;23.90;96.40;;;;;;5016262;28;20065;-70
2022/07/23 07:23:43;;;;;;;2.45;0.82;;;23.80;95.90;;;;;;5016051;28;20041;-70
2022/07/23 07:26:08;;;;;;;1.13;0.50;;;23.50;95.90;;;;;;5016207;28;20135;-70
2022/07/23 07:28:34;;;;;;;4.30;0.88;;;23.80;96.30;;;;;;5016718;28;20358;-70
2022/07/23 07:31:00;;;;;;;1.25;0.52;;;24.80;96.20;;;;;;5015988;28;20474;-70
2022/07/23 07:33:25;;;;;;;1.08;0.60;;;25.80;95.40;;;;;;5016142;28;20348;-70
2022/07/23 07:35:51;;;;;;;0.50;0.50;;;26.90;95.10;;;;;;5015901;28;20046;-70
2022/07/23 07:38:16;;;;;;;1.98;0.50;;;27.50;93.50;;;;;;5015831;28;20073;-70
2022/07/23 07:40:42;;;;;;;1.77;0.50;;;27.50;92.20;;;;;;5016390;28;20041;-70
2022/07/23 07:43:08;;;;;;;0.95;0.52;;;27.60;92.70;;;;;;5016421;28;20103;-70
2022/07/23 07:45:33;;;;;;;1.95;0.68;;;28.00;92.40;;;;;;5015855;28;20199;-71
2022/07/23 07:47:59;;;;;;;1.10;0.30;;;27.40;92.20;;;;;;5015601;28;20058;-70
2022/07/23 07:50:25;;;;;;;1.42;0.55;;;26.90;92.50;;;;;;5015703;28;20033;-70
2022/07/23 07:52:50;;;;;;;1.10;0.50;;;25.80;92.30;;;;;;5015286;28;20125;-70
2022/07/23 07:55:16;;;;;;;1.23;0.40;;;24.80;92.80;;;;;;5015494;28;20045;-70
2022/07/23 07:57:41;;;;;;;3.33;0.50;;;24.10;93.50;;;;;;5015510;28;20066;-70
2022/07/23 08:00:10;;;;;;;0.50;0.38;;;23.90;94.60;;;;;;5015763;28;20049;-70
2022/07/23 08:02:43;;;;;;;1.40;0.38;;;23.80;94.20;;;;;;5015154;28;20076;-70
2022/07/23 08:05:09;;;;;;;1.27;0.30;;;23.30;93.70;;;;;;5015824;28;20332;-70
2022/07/23 08:07:35;;;;;;;0.98;0.40;;;23.00;93.90;;;;;;5015390;28;20046;-70
2022/07/23 08:10:01;;;;;;;0.90;0.40;;;22.60;94.80;;;;;;5015887;28;20046;-70
2022/07/23 08:12:26;;;;;;;2.28;0.50;;;23.10;95.50;;;;;;5015383;28;20107;-69
2022/07/23 08:14:52;;;;;;;0.47;0.40;;;24.30;95.10;;;;;;5015492;28;20096;-70
2022/07/23 08:17:18;;;;;;;1.13;0.40;;;25.90;94.60;;;;;;5015385;28;20109;-70
2022/07/23 08:19:43;;;;;;;2.28;0.40;;;26.10;91.40;;;;;;5015341;28;20065;-70
2022/07/23 08:22:09;;;;;;;1.55;0.50;;;25.50;91.20;;;;;;5014856;28;20351;-70
2022/07/23 08:24:34;;;;;;;1.13;0.50;;;24.80;91.60;;;;;;5014722;28;20193;-71
2022/07/23 08:27:00;;;;;;;0.85;0.63;;;24.30;91.90;;;;;;5015348;28;20053;-70
2022/07/23 08:29:25;;;;;;;2.13;0.63;;;23.80;92.20;;;;;;5015956;28;20091;-70
2022/07/23 08:31:51;;;;;;;0.30;0.30;;;23.90;93.20;;;;;;5014969;28;20470;-70
2022/07/23 08:34:16;;;;;;;1.05;0.40;;;24.60;92.90;;;;;;5014925;28;20046;-70
2022/07/23 08:36:42;;;;;;;0.77;0.50;;;25.20;92.30;;;;;;5014736;28;20062;-70
2022/07/23 08:39:08;;;;;;;2.13;0.65;;;25.20;92.90;;;;;;5015250;28;20050;-70
2022/07/23 08:41:34;;;;;;;1.30;0.50;;;25.00;92.60;;;;;;5015406;28;20046;-70
2022/07/23 08:44:00;;;;;;;13.00;1.20;;;24.40;91.80;;;;;;5015015;28;20045;-70
2022/07/23 08:46:27;;;;;;;5.47;1.23;;;23.80;92.60;;;;;;5015248;28;20053;-70
2022/07/23 08:48:54;;;;;;;1.13;0.77;;;23.80;93.20;;;;;;5014947;28;20064;-70
2022/07/23 08:51:20;;;;;;;0.85;0.40;;;24.30;92.90;;;;;;5015241;28;20038;-70
2022/07/23 08:53:46;;;;;;;0.68;0.40;;;24.90;91.90;;;;;;5015594;28;20421;-70
2022/07/23 08:56:12;;;;;;;1.63;0.60;;;25.60;92.30;;;;;;5014924;28;20048;-69
2022/07/23 08:58:37;;;;;;;1.38;0.40;;;25.90;92.20;;;;;;5013986;28;20429;-71
2022/07/23 09:01:03;;;;;;;1.05;0.45;;;25.80;91.40;;;;;;5015055;28;20391;-70
2022/07/23 09:03:32;;;;;;;1.63;0.50;;;25.90;91.20;;;;;;5014925;28;20170;-70
2022/07/23 09:06:00;;;;;;;1.35;0.50;;;26.60;91.60;;;;;;5016771;28;20042;-70
2022/07/23 09:08:35;;;;;;;0.70;0.50;;;26.40;89.80;;;;;;5019160;28;20081;-70
2022/07/23 09:11:03;;;;;;;2.60;0.50;;;26.00;90.20;;;;;;5018379;28;20046;-70
2022/07/23 09:13:36;;;;;;;0.55;0.35;;;26.10;90.70;;;;;;5018675;28;20088;-70
2022/07/23 09:16:11;;;;;;;0.82;0.30;;;25.70;91.50;;;;;;5019157;28;20104;-70
2022/07/23 09:18:39;;;;;;;3.20;0.43;;;25.50;92.10;;;;;;5018439;28;20117;-70
2022/07/23 09:21:13;;;;;;;0.63;0.30;;;25.40;90.50;;;;;;5018526;28;20046;-70
2022/07/23 09:23:51;;;;;;;0.30;0.30;;;25.30;91.20;;;;;;5018822;28;20042;-70
2022/07/23 09:26:32;;;;;;;0.57;0.40;;;25.00;90.90;;;;;;5018367;28;20128;-70
2022/07/23 09:28:59;;;;;;;2.80;0.60;;;24.60;91.30;;;;;;5018145;28;20065;-70
2022/07/23 09:31:31;;;;;;;0.40;0.30;;;24.20;91.50;;;;;;5018380;28;20050;-70
2022/07/23 09:34:24;;;;;;;2.47;0.50;;;24.00;92.60;;;;;;5018477;28;20049;-70
2022/07/23 09:36:51;;;;;;;;;;;23.80;92.70;;;;;;5014742;28;20049;-70
2022/07/23 09:39:27;;;;;;;16.30;3.17;;;23.80;94.10;;;;;;5017934;28;19979;-70
2022/07/23 09:41:53;;;;;;;6.40;1.38;;;24.00;93.20;;;;;;5018129;28;20072;-70
2022/07/23 09:44:20;;;;;;;2.33;0.40;;;23.80;92.70;;;;;;5018050;28;20057;-70
2022/07/23 09:46:50;;;;;;;2.78;0.60;;;23.60;92.70;;;;;;5018023;28;20042;-69
2022/07/23 09:49:17;;;;;;;2.90;0.77;;;23.70;92.60;;;;;;5018487;28;20038;-70
2022/07/23 09:51:57;;;;;;;0.80;0.50;;;23.80;93.40;;;;;;5017794;28;20084;-70
2022/07/23 09:54:25;;;;;;;1.35;0.55;;;23.80;93.30;;;;;;5017905;28;20054;-70
2022/07/23 09:56:52;;;;;;;1.90;0.73;;;24.00;92.50;;;;;;5017898;28;20042;-70
2022/07/23 09:59:21;;;;;;;0.98;0.60;;;23.90;92.30;;;;;;5017604;28;20183;-70
2022/07/23 10:01:47;;;;;;;0.60;0.50;;;24.20;93.30;;;;;;5017746;28;20172;-70
2022/07/23 10:04:13;;;;;;;2.80;0.73;;;24.40;93.20;;;;;;5017661;28;20461;-70
2022/07/23 10:06:42;;;;;;;0.60;0.50;;;24.40;92.50;;;;;;5018082;28;20061;-70
2022/07/23 10:09:10;;;;;;;1.40;0.52;;;24.20;92.30;;;;;;5017637;28;20056;-70
2022/07/23 10:11:36;;;;;;;3.53;0.88;;;24.20;93.50;;;;;;5017383;28;20046;-70
2022/07/23 10:14:04;;;;;;;1.25;0.82;;;24.30;93.70;;;;;;5017519;28;20060;-70
2022/07/23 10:16:30;;;;;;;1.73;0.60;;;24.50;92.40;;;;;;5017266;28;20061;-70
2022/07/23 10:18:56;;;;;;;2.83;0.90;;;24.40;92.50;;;;;;5017340;28;20056;-70
2022/07/23 10:21:36;;;;;;;0.80;0.47;;;24.20;92.40;;;;;;5017819;28;20128;-70
2022/07/23 10:24:27;;;;;;;0.75;0.52;;;24.40;94.40;;;;;;5017211;28;20072;-70
2022/07/23 10:26:55;;;;;;;2.30;1.15;;;24.70;93.40;;;;;;5017386;28;20137;-70
2022/07/23 10:29:46;;;;;;;2.03;0.60;;;24.40;93.30;;;;;;5016014;28;20117;-70
2022/07/23 10:32:43;;;;;;;2.35;0.70;;;24.40;93.10;;;;;;5015780;28;20557;-70
2022/07/23 10:35:50;;;;;;;5.35;1.08;;;24.40;93.50;;;;;;5016275;28;20046;-70
2022/07/23 10:38:40;;;;;;;1.25;0.70;;;24.30;93.60;;;;;;4936412;29;20047;-70
2022/07/23 10:41:06;;;;;;;3.45;0.90;;;24.10;92.50;;;;;;4936739;29;20060;-70
2022/07/23 10:43:31;;;;;;;1.67;0.63;;;24.10;93.70;;;;;;4988515;28;20057;-70
2022/07/23 10:49:25;;;;;;;3.25;0.68;;;23.60;93.90;;;;;;5015915;28;20042;-70
2022/07/23 10:52:20;;;;;;;2.60;0.70;;;23.50;93.50;;;;;;5016375;28;20108;-70
2022/07/23 10:55:16;;;;;;;1.08;0.60;;;23.50;93.30;;;;;;5015916;28;20143;-70
2022/07/23 10:57:49;;;;;;;1.15;0.50;;;23.40;93.80;;;;;;5015620;28;20489;-70
2022/07/23 11:00:20;;;;;;;1.77;0.55;;;23.20;93.90;;;;;;5015650;28;20069;-70
2022/07/23 11:02:47;;;;;;;0.57;0.45;;;23.30;93.60;;;;;;5014633;28;20103;-70
2022/07/23 11:05:16;;;;;;;2.15;0.77;;;23.30;93.30;;;;;;5015734;28;20405;-70
2022/07/23 11:08:03;;;;;;;1.20;0.55;;;23.20;94.80;;;;;;5016208;28;20057;-70
2022/07/23 11:10:51;;;;;;;2.72;0.85;;;23.40;94.10;;;;;;5015951;28;20042;-70
2022/07/23 11:13:26;;;;;;;2.55;0.57;;;23.50;94.20;;;;;;5015476;28;20045;-71
2022/07/23 11:16:01;;;;;;;2.55;0.85;;;23.80;94.00;;;;;;5015500;28;20214;-70
2022/07/23 11:18:46;;;;;;;1.63;0.70;;;23.60;92.80;;;;;;5015276;28;20497;-70
2022/07/23 11:21:21;;;;;;;4.65;0.70;;;23.50;93.60;;;;;;5015524;28;20060;-70
2022/07/23 11:24:07;;;;;;;1.80;0.80;;;23.60;93.70;;;;;;5015705;28;20414;-70
2022/07/23 11:26:53;;;;;;;4.18;0.80;;;23.40;94.20;;;;;;5015315;28;20057;-70
2022/07/23 11:29:27;;;;;;;1.92;0.60;;;23.30;93.90;;;;;;4979375;28;1034166;-70
2022/07/23 11:32:18;;;;;;;5.05;0.68;;;23.50;95.60;;;;;;5015942;28;20462;-71
2022/07/23 11:34:49;;;;;;;1.48;0.85;;;23.80;94.30;;;;;;5015927;28;20050;-71
2022/07/23 11:37:28;;;;;;;2.47;0.77;;;23.90;94.30;;;;;;5015937;28;20038;-71
2022/07/23 11:39:57;;;;;;;1.70;0.80;;;24.00;94.00;;;;;;5016507;28;20501;-70
2022/07/23 11:42:23;;;;;;;2.88;0.80;;;24.00;94.10;;;;;;5015868;28;20034;-70
2022/07/23 11:44:50;;;;;;;1.83;0.75;;;23.90;93.80;;;;;;5016425;28;20050;-70
2022/07/23 11:47:22;;;;;;;1.20;0.65;;;23.90;93.70;;;;;;5016264;28;20096;-70
2022/07/23 11:49:58;;;;;;;3.15;0.82;;;23.90;94.20;;;;;;5016201;28;20042;-70
2022/07/23 11:52:25;;;;;;;1.55;0.80;;;24.00;93.50;;;;;;5015728;28;20144;-70
2022/07/23 11:54:57;;;;;;;3.92;0.93;;;24.00;93.80;;;;;;5015480;28;20378;-70
2022/07/23 11:57:28;;;;;;;3.13;1.05;;;24.10;94.40;;;;;;5016146;28;20125;-70
2022/07/23 11:59:57;;;;;;;2.08;0.80;;;24.10;93.70;;;;;;5016066;28;20124;-71
2022/07/23 12:02:23;;;;;;;1.23;0.80;;;23.80;93.20;;;;;;5015835;28;20088;-70
2022/07/23 12:04:50;;;;;;;3.50;0.77;;;23.70;93.80;;;;;;5016084;28;20033;-71
2022/07/23 12:07:27;;;;;;;1.70;0.93;;;23.50;93.60;;;;;;5015428;28;20041;-71
2022/07/23 12:09:53;;;;;;;0.93;0.52;;;23.40;94.30;;;;;;5015434;28;20044;-70
2022/07/23 12:12:20;;;;;;;3.13;0.85;;;23.60;95.00;;;;;;5014843;28;20100;-70
2022/07/23 12:14:55;;;;;;;1.88;0.77;;;24.00;95.00;;;;;;5015394;28;20100;-70
2022/07/23 12:17:27;;;;;;;2.08;0.90;;;24.00;94.50;;;;;;5015237;28;20462;-70
2022/07/23 12:19:54;;;;;;;1.10;0.70;;;24.00;94.80;;;;;;5015311;28;20089;-70
2022/07/23 12:22:21;;;;;;;1.00;0.60;;;24.20;94.50;;;;;;5015471;28;20510;-71
2022/07/23 12:25:04;;;;;;;2.15;0.68;;;24.10;94.10;;;;;;5015175;28;20085;-70
2022/07/23 12:27:29;;;;;;;1.48;0.82;;;24.10;95.00;;;;;;5015391;28;20054;-70
2022/07/23 12:29:55;;;;;;;0.88;0.65;;;24.00;94.30;;;;;;5015247;28;20458;-71
2022/07/23 12:32:24;;;;;;;1.67;0.70;;;24.00;94.60;;;;;;5015092;28;20482;-70
2022/07/23 12:35:10;;;;;;;1.77;0.75;;;24.20;95.20;;;;;;5015065;28;20049;-70
2022/07/23 12:37:39;;;;;;;2.08;0.88;;;24.30;94.80;;;;;;5014678;28;20050;-70
2022/07/23 12:40:29;;;;;;;1.23;0.80;;;24.60;94.20;;;;;;5014355;28;20111;-70
2022/07/23 12:43:02;;;;;;;1.45;0.55;;;24.60;93.80;;;;;;5014918;28;20046;-70
2022/07/23 12:45:28;;;;;;;;;;;24.90;95.10;;;;;;5016088;28;20420;-70
2022/07/23 12:48:01;;;;;;;2.67;0.80;;;24.90;93.70;;;;;;5014866;28;19976;-70
2022/07/23 12:51:02;;;;;;;6.18;0.85;;;24.90;93.70;;;;;;5014951;28;20181;-71
2022/07/23 12:53:39;;;;;;;3.58;0.70;;;25.00;93.70;;;;;;4971999;28;20133;-70
2022/07/23 12:56:17;;;;;;;1.58;0.75;;;25.00;93.80;;;;;;5015121;28;20057;-71